Time;durP1;ratioP1;P1;durP2;ratioP2;P2;SDS_P1;SDS_P2;PMS_P1;PMS_P2;Temp;Humidity;BMP_temperature;BMP_pressure;BME280_temperature;BME280_humidity;BME280_pressure;Samples;Min_cycle;Max_cycle;Signal;HPM_P1;HPM_P2
2021/06/15 00:01:48;;;;;;;4.87;4.47;;;16.80;83.60;;;;;;5130790;28;20668;-88
2021/06/15 00:04:16;;;;;;;5.33;4.40;;;16.90;81.10;;;;;;5131702;28;20627;-88
2021/06/15 00:06:43;;;;;;;5.60;5.10;;;16.80;83.00;;;;;;5130908;28;20621;-88
2021/06/15 00:09:10;;;;;;;5.53;5.13;;;16.80;84.10;;;;;;5131384;27;20610;-88
2021/06/15 00:11:37;;;;;;;5.80;5.30;;;16.80;83.80;;;;;;5134070;27;21038;-88
2021/06/15 00:14:06;;;;;;;7.30;4.60;;;16.60;84.10;;;;;;5135041;27;20618;-88
2021/06/15 00:16:33;;;;;;;5.73;5.13;;;16.50;85.10;;;;;;5134368;27;20787;-88
2021/06/15 00:19:00;;;;;;;6.00;4.27;;;16.60;85.30;;;;;;5135280;27;20746;-88
2021/06/15 00:21:27;;;;;;;5.20;4.40;;;16.70;85.00;;;;;;5135497;27;20614;-88
2021/06/15 00:23:53;;;;;;;5.30;4.80;;;16.70;85.20;;;;;;5135439;27;20655;-88
2021/06/15 00:26:20;;;;;;;5.30;4.80;;;16.60;85.70;;;;;;5134707;27;20707;-88
2021/06/15 00:28:47;;;;;;;6.07;4.77;;;16.60;85.80;;;;;;5129587;27;21187;-88
2021/06/15 00:31:16;;;;;;;5.50;5.00;;;16.70;85.60;;;;;;5135016;27;20699;-87
2021/06/15 00:33:43;;;;;;;9.27;4.73;;;16.60;85.90;;;;;;5134946;27;20997;-87
2021/06/15 00:36:10;;;;;;;5.33;4.83;;;16.60;83.50;;;;;;5134913;27;20607;-88
2021/06/15 00:38:37;;;;;;;5.03;4.63;;;16.60;83.30;;;;;;5134620;27;21248;-88
2021/06/15 00:41:04;;;;;;;4.97;4.50;;;16.60;83.70;;;;;;5137711;27;20617;-88
2021/06/15 00:43:30;;;;;;;5.47;5.00;;;16.50;82.10;;;;;;5153727;27;20653;-88
2021/06/15 00:45:57;;;;;;;5.77;5.17;;;16.60;85.30;;;;;;5150578;27;20625;-88
2021/06/15 00:48:29;;;;;;;5.43;5.03;;;16.50;86.00;;;;;;5133924;27;20626;-87
2021/06/15 00:50:56;;;;;;;6.07;5.47;;;16.40;87.00;;;;;;5134184;27;20639;-88
2021/06/15 00:53:23;;;;;;;5.17;4.63;;;16.30;87.80;;;;;;5134584;27;20659;-87
2021/06/15 00:55:52;;;;;;;5.93;4.67;;;16.40;86.30;;;;;;5133634;27;20618;-87
2021/06/15 00:58:19;;;;;;;4.87;4.47;;;16.40;85.30;;;;;;5129551;27;20638;-88
2021/06/15 01:00:46;;;;;;;6.90;4.90;;;16.60;85.30;;;;;;5133685;27;20659;-87
2021/06/15 01:03:14;;;;;;;6.80;5.10;;;16.60;85.90;;;;;;5134722;27;20951;-88
2021/06/15 01:05:47;;;;;;;5.93;5.37;;;16.60;84.60;;;;;;5133865;27;20615;-87
2021/06/15 01:08:26;;;;;;;8.00;4.70;;;16.60;85.70;;;;;;5134781;27;20610;-88
2021/06/15 01:11:02;;;;;;;5.30;4.90;;;16.60;87.20;;;;;;5128804;27;20653;-87
2021/06/15 01:13:46;;;;;;;9.00;5.63;;;16.50;86.40;;;;;;5130726;27;20630;-88
2021/06/15 01:16:21;;;;;;;6.50;5.50;;;16.40;87.90;;;;;;5124911;27;20633;-88
2021/06/15 01:18:52;;;;;;;5.83;5.33;;;16.40;87.70;;;;;;5133882;27;20690;-88
2021/06/15 01:21:24;;;;;;;6.13;4.97;;;16.40;87.60;;;;;;5133353;27;20653;-87
2021/06/15 01:24:09;;;;;;;5.83;5.20;;;16.40;88.00;;;;;;5133933;27;20679;-87
2021/06/15 01:27:10;;;;;;;6.00;5.00;;;16.40;88.40;;;;;;5133638;27;20606;-87
2021/06/15 01:29:44;;;;;;;6.27;4.97;;;16.30;88.20;;;;;;5133785;27;20627;-87
2021/06/15 01:32:21;;;;;;;7.53;4.90;;;16.10;89.00;;;;;;5133456;27;20654;-87
2021/06/15 01:34:50;;;;;;;5.10;4.70;;;16.00;90.20;;;;;;5133760;27;21240;-87
2021/06/15 01:37:24;;;;;;;7.40;4.80;;;16.00;90.00;;;;;;5134024;27;20660;-87
2021/06/15 01:39:59;;;;;;;5.80;5.13;;;15.90;90.80;;;;;;5133875;27;20609;-87
2021/06/15 01:42:32;;;;;;;5.40;4.90;;;16.00;90.60;;;;;;5133491;27;20709;-87
2021/06/15 01:45:05;;;;;;;6.57;5.47;;;15.90;90.50;;;;;;5133940;27;20644;-87
2021/06/15 01:47:33;;;;;;;8.23;5.30;;;16.00;90.20;;;;;;5133573;27;20630;-87
2021/06/15 01:50:06;;;;;;;6.67;5.50;;;16.00;90.30;;;;;;5134098;27;20687;-87
2021/06/15 01:52:38;;;;;;;5.07;4.67;;;16.10;90.00;;;;;;5133671;27;20654;-87
2021/06/15 01:55:10;;;;;;;5.83;5.23;;;16.10;89.10;;;;;;5132999;27;20606;-87
2021/06/15 01:57:40;;;;;;;5.13;4.73;;;16.10;89.70;;;;;;5133588;27;20615;-87
2021/06/15 02:00:12;;;;;;;5.60;5.10;;;16.10;90.00;;;;;;5133761;27;21172;-88
2021/06/15 02:02:43;;;;;;;5.67;5.17;;;16.00;89.10;;;;;;5133572;27;21050;-87
2021/06/15 02:05:13;;;;;;;5.77;4.20;;;16.10;89.40;;;;;;5133487;27;21155;-87
2021/06/15 02:07:49;;;;;;;5.30;4.30;;;16.10;88.70;;;;;;5133197;27;20611;-87
2021/06/15 02:10:19;;;;;;;5.10;4.60;;;16.00;90.10;;;;;;5129790;27;20609;-87
2021/06/15 02:12:53;;;;;;;6.80;5.10;;;15.90;90.30;;;;;;5132680;27;20613;-87
2021/06/15 02:15:27;;;;;;;8.63;6.63;;;15.90;90.40;;;;;;5132849;27;20705;-87
2021/06/15 02:17:58;;;;;;;5.43;4.93;;;15.90;90.30;;;;;;5133225;27;20610;-87
2021/06/15 02:20:30;;;;;;;5.30;4.90;;;16.00;90.20;;;;;;5133164;27;20649;-87
2021/06/15 02:23:02;;;;;;;9.00;5.37;;;16.00;90.20;;;;;;5133155;27;20632;-88
2021/06/15 02:25:34;;;;;;;6.37;5.50;;;16.00;90.00;;;;;;5132741;27;20602;-87
2021/06/15 02:28:01;;;;;;;6.30;5.10;;;15.90;89.20;;;;;;5133363;27;20621;-87
2021/06/15 02:30:31;;;;;;;6.30;5.57;;;16.00;88.70;;;;;;5132875;27;20607;-87
2021/06/15 02:33:04;;;;;;;7.03;5.57;;;16.00;88.80;;;;;;5132518;27;20805;-87
2021/06/15 02:35:32;;;;;;;5.40;4.60;;;16.00;88.00;;;;;;5132578;27;20975;-87
2021/06/15 02:38:04;;;;;;;6.43;4.20;;;16.00;88.10;;;;;;5132586;27;20630;-87
2021/06/15 02:40:33;;;;;;;8.20;5.40;;;16.00;88.10;;;;;;5132516;27;20629;-87
2021/06/15 02:43:01;;;;;;;6.00;5.47;;;16.00;88.00;;;;;;5132604;27;20723;-87
2021/06/15 02:45:32;;;;;;;7.13;4.73;;;16.00;88.00;;;;;;5132105;27;20614;-87
2021/06/15 02:48:04;;;;;;;5.27;4.73;;;16.00;89.40;;;;;;5132283;27;20628;-86
2021/06/15 02:50:32;;;;;;;9.10;5.40;;;15.90;89.50;;;;;;5131065;27;21412;-87
2021/06/15 02:53:05;;;;;;;5.93;5.43;;;15.80;89.00;;;;;;5132712;27;20610;-87
2021/06/15 02:55:36;;;;;;;6.47;5.83;;;15.80;89.80;;;;;;5131851;27;21167;-87
2021/06/15 02:58:04;;;;;;;7.30;5.80;;;15.80;90.00;;;;;;5132548;27;20614;-87
2021/06/15 03:00:32;;;;;;;6.20;5.70;;;15.70;88.80;;;;;;5132403;27;20626;-87
2021/06/15 03:03:00;;;;;;;7.10;5.20;;;15.70;88.40;;;;;;5132244;27;20622;-87
2021/06/15 03:05:27;;;;;;;6.20;5.30;;;15.90;89.20;;;;;;5131938;27;20611;-87
2021/06/15 03:07:54;;;;;;;6.00;5.20;;;15.80;90.10;;;;;;5132307;27;21186;-87
2021/06/15 03:10:25;;;;;;;6.00;5.57;;;15.80;89.70;;;;;;5132441;27;20683;-87
2021/06/15 03:12:56;;;;;;;6.33;5.37;;;15.80;90.20;;;;;;5131267;27;20647;-87
2021/06/15 03:15:30;;;;;;;7.77;5.67;;;15.60;91.10;;;;;;5131840;27;20599;-87
2021/06/15 03:18:04;;;;;;;13.60;5.20;;;15.50;91.40;;;;;;5127748;27;20637;-86
2021/06/15 03:20:32;;;;;;;6.70;6.10;;;15.40;92.10;;;;;;5132062;27;20614;-87
2021/06/15 03:23:06;;;;;;;6.23;5.67;;;15.40;91.80;;;;;;5131998;27;20618;-86
2021/06/15 03:25:35;;;;;;;5.00;4.60;;;15.40;91.70;;;;;;5131764;27;20610;-87
2021/06/15 03:28:08;;;;;;;6.47;5.90;;;15.40;91.80;;;;;;5131449;27;21011;-87
2021/06/15 03:30:35;;;;;;;5.67;4.97;;;15.40;91.70;;;;;;5132394;27;20606;-86
2021/06/15 03:33:08;;;;;;;8.70;6.13;;;15.50;91.40;;;;;;5131739;27;21351;-86
2021/06/15 03:35:39;;;;;;;8.73;6.03;;;15.50;91.40;;;;;;5131476;27;20674;-87
2021/06/15 03:38:07;;;;;;;6.67;6.03;;;15.60;91.10;;;;;;5131821;27;20667;-86
2021/06/15 03:40:37;;;;;;;7.90;6.13;;;15.60;91.30;;;;;;5131660;27;20601;-86
2021/06/15 03:43:06;;;;;;;6.83;6.07;;;15.60;91.20;;;;;;5131383;27;20615;-86
2021/06/15 03:45:37;;;;;;;7.47;6.27;;;15.60;90.90;;;;;;5131218;27;20957;-86
2021/06/15 03:48:07;;;;;;;8.33;7.00;;;15.60;91.00;;;;;;5131853;27;20623;-87
2021/06/15 03:50:36;;;;;;;8.30;5.87;;;15.60;90.90;;;;;;5126972;28;20683;-86
2021/06/15 03:53:05;;;;;;;10.40;6.13;;;15.60;90.90;;;;;;5130663;28;20634;-86
2021/06/15 03:55:35;;;;;;;7.83;6.70;;;15.60;91.10;;;;;;5131454;28;21027;-86
2021/06/15 03:58:04;;;;;;;6.37;5.80;;;15.70;90.80;;;;;;5131750;28;21026;-87
2021/06/15 04:00:32;;;;;;;6.23;4.73;;;15.70;90.60;;;;;;5132041;27;20686;-86
2021/06/15 04:03:01;;;;;;;5.47;4.97;;;15.80;90.30;;;;;;5131477;28;20613;-86
2021/06/15 04:05:30;;;;;;;6.13;5.43;;;15.80;90.20;;;;;;5130679;28;20687;-86
2021/06/15 04:08:00;;;;;;;7.10;6.13;;;15.80;90.10;;;;;;5131595;28;20653;-86
2021/06/15 04:10:31;;;;;;;5.90;5.07;;;15.90;90.60;;;;;;5127632;27;20691;-86
2021/06/15 04:13:02;;;;;;;6.37;5.67;;;16.00;91.00;;;;;;5129322;28;20645;-86
2021/06/15 04:15:29;;;;;;;6.30;5.50;;;15.90;90.80;;;;;;5130851;28;20644;-85
2021/06/15 04:17:59;;;;;;;10.83;5.77;;;16.00;91.00;;;;;;5131943;27;21243;-86
2021/06/15 04:20:29;;;;;;;6.60;5.80;;;16.00;91.20;;;;;;5131066;28;20702;-86
2021/06/15 04:23:04;;;;;;;6.03;5.50;;;16.10;91.20;;;;;;5131759;27;21142;-86
2021/06/15 04:25:33;;;;;;;6.70;6.10;;;16.10;91.40;;;;;;5130807;27;20614;-86
2021/06/15 04:28:01;;;;;;;6.30;5.70;;;16.20;90.80;;;;;;5131333;27;20651;-86
2021/06/15 04:30:30;;;;;;;8.93;5.43;;;16.30;90.50;;;;;;5130900;27;20689;-86
2021/06/15 04:33:00;;;;;;;6.47;5.43;;;16.30;90.80;;;;;;5131402;27;20749;-86
2021/06/15 04:35:31;;;;;;;7.53;6.83;;;16.30;91.20;;;;;;5131177;27;20610;-86
2021/06/15 04:38:02;;;;;;;7.50;6.80;;;16.30;91.20;;;;;;5131413;27;20646;-86
2021/06/15 04:40:35;;;;;;;7.63;5.60;;;16.40;90.80;;;;;;5131103;27;21479;-85
2021/06/15 04:43:21;;;;;;;7.17;5.30;;;16.50;90.50;;;;;;5130660;27;20624;-85
2021/06/15 04:45:50;;;;;;;7.10;6.40;;;16.60;90.60;;;;;;5130338;28;20715;-85
2021/06/15 04:48:29;;;;;;;7.43;6.03;;;16.80;90.00;;;;;;5131268;28;20638;-85
2021/06/15 04:51:00;;;;;;;5.37;4.73;;;16.90;89.90;;;;;;5131203;28;20617;-85
2021/06/15 04:53:31;;;;;;;9.10;5.40;;;17.00;89.60;;;;;;5126078;28;20647;-85
2021/06/15 04:56:02;;;;;;;7.63;5.80;;;17.10;87.90;;;;;;5130149;27;20701;-85
2021/06/15 04:58:32;;;;;;;6.07;5.40;;;17.20;88.30;;;;;;5134722;27;20622;-85
2021/06/15 05:01:01;;;;;;;6.50;5.83;;;17.20;88.60;;;;;;5134776;27;20686;-85
2021/06/15 05:03:30;;;;;;;7.70;5.23;;;17.20;90.00;;;;;;5134691;27;20721;-85
2021/06/15 05:06:02;;;;;;;6.57;5.20;;;17.20;90.00;;;;;;5134090;27;20606;-86
2021/06/15 05:08:33;;;;;;;6.30;5.63;;;17.20;90.40;;;;;;5134269;27;20646;-85
2021/06/15 05:11:03;;;;;;;14.10;5.57;;;17.30;89.50;;;;;;5134000;27;20633;-85
2021/06/15 05:13:31;;;;;;;6.50;5.73;;;17.30;89.90;;;;;;5134037;27;20686;-85
2021/06/15 05:16:00;;;;;;;7.03;5.27;;;17.50;88.40;;;;;;5133862;27;20675;-85
2021/06/15 05:18:27;;;;;;;8.53;5.70;;;17.60;86.00;;;;;;5134073;27;20654;-85
2021/06/15 05:20:54;;;;;;;6.37;5.37;;;17.80;86.30;;;;;;5134017;27;20695;-85
2021/06/15 05:23:25;;;;;;;6.50;5.90;;;17.90;84.50;;;;;;5134250;27;20622;-86
2021/06/15 05:25:54;;;;;;;6.50;5.27;;;18.00;84.40;;;;;;5133921;27;21005;-85
2021/06/15 05:28:21;;;;;;;5.50;5.00;;;18.00;83.80;;;;;;5133933;27;20619;-85
2021/06/15 05:30:48;;;;;;;8.80;5.57;;;18.20;84.00;;;;;;5129435;27;20610;-86
2021/06/15 05:33:15;;;;;;;5.20;4.80;;;18.20;84.30;;;;;;5128731;27;20646;-86
2021/06/15 05:35:43;;;;;;;7.90;5.83;;;18.30;84.10;;;;;;5132444;27;20627;-86
2021/06/15 05:38:11;;;;;;;5.70;5.20;;;18.40;82.60;;;;;;5134643;27;20626;-86
2021/06/15 05:40:38;;;;;;;6.67;5.30;;;18.40;82.90;;;;;;5133718;27;20596;-86
2021/06/15 05:43:07;;;;;;;6.20;5.60;;;18.50;83.30;;;;;;5133686;27;20713;-86
2021/06/15 05:45:35;;;;;;;6.27;5.17;;;18.50;82.60;;;;;;5133208;27;20676;-86
2021/06/15 05:48:01;;;;;;;5.93;5.33;;;18.60;82.00;;;;;;5134575;27;20979;-86
2021/06/15 05:50:28;;;;;;;4.70;4.30;;;18.70;81.60;;;;;;5134424;27;20681;-85
2021/06/15 05:52:55;;;;;;;4.80;4.30;;;18.70;80.50;;;;;;5126255;27;20741;-86
2021/06/15 05:55:23;;;;;;;6.13;4.97;;;18.70;80.90;;;;;;5132525;27;21239;-86
2021/06/15 05:57:50;;;;;;;5.93;4.57;;;18.80;81.30;;;;;;5133727;27;20620;-86
2021/06/15 06:00:20;;;;;;;4.80;4.40;;;19.00;81.60;;;;;;5133443;27;20625;-85
2021/06/15 06:02:47;;;;;;;5.10;4.70;;;19.10;81.10;;;;;;5131684;27;21148;-84
2021/06/15 06:08:06;;;;;;;4.87;4.47;;;19.20;78.90;;;;;;5133400;27;20611;-84
2021/06/15 06:10:34;;;;;;;5.20;4.63;;;19.30;80.10;;;;;;5132859;27;20611;-85
2021/06/15 06:13:02;;;;;;;5.20;4.57;;;19.40;78.70;;;;;;5134181;27;20988;-84
2021/06/15 06:15:30;;;;;;;4.90;4.40;;;19.50;75.50;;;;;;5133632;27;21166;-85
2021/06/15 06:18:06;;;;;;;7.17;4.33;;;19.60;76.00;;;;;;5124799;27;20626;-85
2021/06/15 06:20:33;;;;;;;8.03;3.93;;;19.70;76.50;;;;;;5114238;28;20623;-85
2021/06/15 06:23:01;;;;;;;10.90;4.43;;;19.80;76.50;;;;;;5129806;27;20722;-84
2021/06/15 06:25:28;;;;;;;5.80;4.50;;;19.80;74.40;;;;;;5132684;27;20646;-84
2021/06/15 06:27:55;;;;;;;4.43;3.73;;;20.00;75.50;;;;;;5133739;27;20622;-85
2021/06/15 06:30:23;;;;;;;4.83;4.20;;;20.00;75.50;;;;;;5134731;27;20599;-85
2021/06/15 06:32:52;;;;;;;4.67;4.27;;;20.00;74.80;;;;;;5133085;27;20658;-84
2021/06/15 06:35:19;;;;;;;4.47;4.17;;;20.10;73.60;;;;;;5133086;27;20981;-85
2021/06/15 06:37:46;;;;;;;5.63;4.13;;;20.30;72.60;;;;;;5133317;27;20656;-86
2021/06/15 06:40:15;;;;;;;10.77;5.47;;;20.20;73.00;;;;;;5133077;27;20613;-86
2021/06/15 06:42:42;;;;;;;5.43;4.43;;;20.40;73.90;;;;;;5132300;27;20623;-85
2021/06/15 06:45:11;;;;;;;5.37;4.50;;;20.50;74.30;;;;;;5133810;27;20607;-85
2021/06/15 06:47:38;;;;;;;7.80;4.40;;;20.60;74.10;;;;;;5134097;27;21122;-85
2021/06/15 06:50:08;;;;;;;5.20;4.70;;;20.70;72.30;;;;;;5131812;27;20609;-85
2021/06/15 06:52:36;;;;;;;8.30;4.90;;;20.90;72.10;;;;;;5130282;27;21113;-86
2021/06/15 06:55:04;;;;;;;4.63;4.10;;;21.00;72.70;;;;;;5130751;27;20615;-86
2021/06/15 06:57:31;;;;;;;4.60;4.20;;;21.00;71.70;;;;;;5133448;27;20624;-85
2021/06/15 06:59:59;;;;;;;5.30;4.40;;;21.10;72.20;;;;;;5133483;27;20621;-85
2021/06/15 07:02:26;;;;;;;10.10;4.17;;;21.10;73.00;;;;;;5134050;27;20607;-85
2021/06/15 07:04:53;;;;;;;5.27;4.77;;;21.30;73.10;;;;;;5131890;27;20603;-86
2021/06/15 07:07:22;;;;;;;5.33;4.83;;;21.40;73.30;;;;;;5133597;27;20606;-86
2021/06/15 07:09:49;;;;;;;11.30;5.00;;;21.50;73.90;;;;;;5132934;27;20607;-86
2021/06/15 07:12:16;;;;;;;5.03;4.63;;;21.60;74.60;;;;;;5132598;27;20631;-87
2021/06/15 07:14:43;;;;;;;10.53;4.73;;;21.70;74.50;;;;;;5133750;27;20610;-85
2021/06/15 07:17:10;;;;;;;9.47;5.50;;;21.80;73.30;;;;;;5135210;27;20622;-86
2021/06/15 07:19:37;;;;;;;7.27;4.30;;;21.80;73.70;;;;;;5136012;27;21022;-86
2021/06/15 07:22:05;;;;;;;5.47;4.87;;;21.90;75.30;;;;;;5135687;27;20614;-87
2021/06/15 07:24:34;;;;;;;6.53;5.40;;;22.00;73.00;;;;;;5136084;27;20615;-86
2021/06/15 07:27:01;;;;;;;9.10;4.90;;;22.00;72.30;;;;;;5132233;27;20638;-86
2021/06/15 07:29:28;;;;;;;5.70;5.20;;;22.20;72.20;;;;;;5134037;27;20993;-86
2021/06/15 07:31:55;;;;;;;6.27;4.73;;;22.20;69.30;;;;;;5133920;27;20608;-86
2021/06/15 07:34:22;;;;;;;6.20;4.30;;;22.00;71.00;;;;;;5135537;27;20647;-85
2021/06/15 07:36:49;;;;;;;6.70;5.00;;;22.30;71.70;;;;;;5135925;27;20676;-85
2021/06/15 07:39:17;;;;;;;4.87;4.47;;;22.40;69.10;;;;;;5135499;27;20610;-85
2021/06/15 07:41:45;;;;;;;5.33;4.83;;;22.40;68.30;;;;;;5134679;27;20623;-85
2021/06/15 07:44:12;;;;;;;9.13;4.90;;;22.30;69.60;;;;;;5135336;27;21161;-86
2021/06/15 07:46:40;;;;;;;12.70;4.97;;;22.60;69.80;;;;;;5130269;27;20617;-86
2021/06/15 07:49:07;;;;;;;5.30;4.90;;;22.70;68.80;;;;;;5117487;28;20629;-86
2021/06/15 07:51:38;;;;;;;8.60;4.87;;;22.90;69.40;;;;;;5130177;28;20601;-85
2021/06/15 07:54:06;;;;;;;9.83;5.30;;;23.10;68.80;;;;;;5118495;28;20645;-86
2021/06/15 07:56:33;;;;;;;6.30;5.43;;;23.30;69.50;;;;;;5133686;28;21225;-85
2021/06/15 07:59:02;;;;;;;9.03;5.27;;;23.30;69.70;;;;;;5130232;28;20636;-86
2021/06/15 08:01:29;;;;;;;8.77;5.00;;;23.00;70.60;;;;;;5129307;27;21179;-86
2021/06/15 08:03:56;;;;;;;6.03;4.47;;;23.20;68.70;;;;;;5131188;28;20626;-86
2021/06/15 08:06:23;;;;;;;5.90;4.47;;;23.20;69.50;;;;;;5125806;28;20621;-86
2021/06/15 08:08:50;;;;;;;5.37;4.73;;;23.40;67.80;;;;;;5134436;28;20628;-87
2021/06/15 08:11:18;;;;;;;5.50;4.57;;;23.60;66.90;;;;;;5134626;28;20614;-87
2021/06/15 08:13:46;;;;;;;4.70;4.20;;;23.70;67.60;;;;;;5134762;28;20640;-88
2021/06/15 08:16:15;;;;;;;11.80;5.33;;;24.00;67.80;;;;;;5134192;27;20626;-86
2021/06/15 08:18:43;;;;;;;6.90;4.57;;;24.10;68.50;;;;;;5133761;27;20610;-86
2021/06/15 08:21:10;;;;;;;7.13;5.13;;;24.10;68.70;;;;;;5133972;28;21151;-86
2021/06/15 08:23:37;;;;;;;6.90;5.30;;;24.00;67.80;;;;;;5134499;27;20660;-85
2021/06/15 08:26:04;;;;;;;6.93;5.27;;;23.80;67.80;;;;;;5134073;27;20596;-86
2021/06/15 08:28:31;;;;;;;7.70;4.70;;;23.80;67.80;;;;;;5135115;28;21171;-86
2021/06/15 08:30:58;;;;;;;7.13;5.03;;;24.00;69.00;;;;;;5135588;27;20618;-86
2021/06/15 08:33:27;;;;;;;5.13;4.03;;;24.00;69.40;;;;;;5138346;27;20655;-86
2021/06/15 08:35:55;;;;;;;5.40;4.90;;;24.10;68.30;;;;;;5138489;27;20604;-86
2021/06/15 08:38:22;;;;;;;4.77;4.13;;;24.20;66.50;;;;;;5133114;27;20658;-85
2021/06/15 08:40:51;;;;;;;5.30;4.10;;;24.30;66.70;;;;;;5138960;27;20666;-85
2021/06/15 08:43:19;;;;;;;4.37;4.00;;;24.50;64.90;;;;;;5137589;27;21183;-85
2021/06/15 08:45:47;;;;;;;4.27;3.70;;;24.80;63.10;;;;;;5137120;27;20956;-85
2021/06/15 08:48:14;;;;;;;7.60;3.87;;;24.90;60.10;;;;;;5137971;27;20644;-86
2021/06/15 08:50:44;;;;;;;4.63;4.23;;;24.80;61.70;;;;;;5138377;27;20626;-86
2021/06/15 08:53:12;;;;;;;4.07;3.77;;;24.80;59.90;;;;;;5137718;27;20678;-86
2021/06/15 08:55:39;;;;;;;3.87;3.57;;;24.80;59.60;;;;;;5138553;27;20709;-85
2021/06/15 08:58:31;;;;;;;4.20;3.80;;;24.90;59.80;;;;;;5132068;27;20678;-85
2021/06/15 09:00:57;;;;;;;5.53;4.63;;;25.00;60.00;;;;;;5135667;27;20613;-86
2021/06/15 09:03:24;;;;;;;5.73;3.90;;;24.90;58.80;;;;;;5129570;27;20611;-85
2021/06/15 09:05:53;;;;;;;4.60;4.20;;;25.10;59.80;;;;;;5114989;28;20710;-86
2021/06/15 09:08:20;;;;;;;4.17;3.77;;;25.20;58.90;;;;;;5115184;28;20603;-86
2021/06/15 09:10:48;;;;;;;4.30;4.00;;;25.30;59.50;;;;;;5115238;28;20680;-86
2021/06/15 09:13:37;;;;;;;4.70;4.30;;;25.50;59.00;;;;;;5109883;28;21226;-86
2021/06/15 09:16:24;;;;;;;4.67;4.10;;;25.50;57.80;;;;;;5115866;28;21185;-86
2021/06/15 09:18:53;;;;;;;4.93;4.53;;;25.10;57.70;;;;;;5116388;28;20614;-85
2021/06/15 09:21:42;;;;;;;4.50;4.10;;;25.20;57.60;;;;;;5112710;28;20638;-86
2021/06/15 09:24:12;;;;;;;6.03;5.50;;;25.40;58.00;;;;;;5116605;28;20595;-85
2021/06/15 09:27:00;;;;;;;5.50;5.00;;;25.40;57.50;;;;;;5115529;28;20981;-86
2021/06/15 09:29:46;;;;;;;5.40;4.87;;;25.60;56.40;;;;;;5110353;28;20742;-86
2021/06/15 09:32:17;;;;;;;4.17;3.80;;;25.80;56.40;;;;;;5115951;28;20623;-86
2021/06/15 09:34:55;;;;;;;6.30;4.73;;;26.00;56.20;;;;;;5114912;28;20658;-87
2021/06/15 09:37:35;;;;;;;5.53;3.93;;;26.10;54.90;;;;;;5115448;28;20668;-85
2021/06/15 09:40:10;;;;;;;5.00;3.50;;;26.20;55.90;;;;;;5115460;28;20629;-86
2021/06/15 09:42:50;;;;;;;3.83;3.57;;;26.40;54.50;;;;;;5115386;28;20610;-86
2021/06/15 09:45:21;;;;;;;3.80;3.50;;;26.30;53.10;;;;;;5113676;28;20618;-86
2021/06/15 09:47:48;;;;;;;4.80;4.30;;;26.30;53.60;;;;;;5115323;28;20735;-86
2021/06/15 09:50:16;;;;;;;4.83;4.27;;;26.20;53.80;;;;;;5115298;28;21144;-86
2021/06/15 09:52:44;;;;;;;4.73;4.17;;;26.00;55.10;;;;;;5115140;28;20627;-87
2021/06/15 09:55:12;;;;;;;10.23;4.13;;;25.90;54.50;;;;;;5109533;28;20638;-87
2021/06/15 09:57:44;;;;;;;4.60;4.20;;;25.80;55.50;;;;;;5115261;28;20744;-86
2021/06/15 10:00:15;;;;;;;4.93;4.27;;;26.20;55.90;;;;;;5115239;28;20627;-86
2021/06/15 10:03:02;;;;;;;4.77;4.37;;;26.70;54.90;;;;;;5115018;28;20651;-86
2021/06/15 10:05:31;;;;;;;3.47;3.17;;;27.00;54.40;;;;;;5094203;28;20605;-86
2021/06/15 10:08:02;;;;;;;4.60;4.20;;;27.10;52.70;;;;;;5095641;28;20624;-86
2021/06/15 10:10:32;;;;;;;9.03;4.07;;;27.10;51.50;;;;;;5115006;28;20623;-87
2021/06/15 10:12:59;;;;;;;4.17;3.63;;;27.00;51.60;;;;;;5114502;28;20611;-86
2021/06/15 10:15:28;;;;;;;4.17;3.77;;;27.20;52.60;;;;;;5114132;28;20608;-88
2021/06/15 10:17:56;;;;;;;4.13;3.83;;;27.40;54.20;;;;;;5114850;28;20611;-86
2021/06/15 10:20:26;;;;;;;4.83;4.13;;;27.60;53.60;;;;;;5114607;28;20672;-86
2021/06/15 10:22:54;;;;;;;3.60;3.30;;;27.80;52.60;;;;;;5109158;28;20651;-86
2021/06/15 10:25:24;;;;;;;3.93;3.63;;;27.80;51.70;;;;;;5114218;28;20647;-84
2021/06/15 10:27:54;;;;;;;4.37;4.07;;;27.90;51.20;;;;;;5114249;28;20628;-87
2021/06/15 10:30:30;;;;;;;3.23;3.03;;;28.00;50.00;;;;;;5114776;28;21272;-86
2021/06/15 10:33:00;;;;;;;3.30;3.10;;;28.10;49.60;;;;;;5114779;28;20664;-87
2021/06/15 10:35:45;;;;;;;3.33;3.13;;;28.30;50.40;;;;;;5114409;28;20623;-87
2021/06/15 10:38:17;;;;;;;4.10;3.70;;;27.80;47.60;;;;;;5114127;28;20680;-85
2021/06/15 10:40:52;;;;;;;4.10;3.77;;;27.80;50.90;;;;;;5114205;28;20660;-87
2021/06/15 10:43:22;;;;;;;3.97;3.40;;;28.20;51.10;;;;;;5113827;28;20675;-86
2021/06/15 10:45:52;;;;;;;3.80;3.50;;;28.40;49.50;;;;;;5110003;28;20654;-86
2021/06/15 10:48:41;;;;;;;5.10;3.57;;;28.40;49.10;;;;;;5114276;28;20680;-87
2021/06/15 10:51:59;;;;;;;6.10;3.70;;;28.20;51.50;;;;;;5114524;28;20626;-87
2021/06/15 10:54:38;;;;;;;4.03;3.13;;;28.20;50.20;;;;;;5043923;28;20662;-87
2021/06/15 10:57:28;;;;;;;3.80;3.43;;;28.50;48.40;;;;;;5114687;28;20708;-88
2021/06/15 11:00:05;;;;;;;3.30;3.00;;;28.90;48.10;;;;;;5114402;28;20620;-87
2021/06/15 11:02:32;;;;;;;6.70;3.60;;;29.10;48.30;;;;;;5114000;28;20611;-88
2021/06/15 11:05:00;;;;;;;6.27;3.80;;;29.40;48.10;;;;;;5113637;28;20614;-87
2021/06/15 11:07:34;;;;;;;4.93;3.37;;;29.20;47.90;;;;;;5113912;28;20618;-88
2021/06/15 11:10:01;;;;;;;3.13;2.93;;;29.40;47.90;;;;;;5113042;28;20607;-87
2021/06/15 11:12:29;;;;;;;4.33;3.50;;;29.40;46.30;;;;;;5114054;28;20611;-87
2021/06/15 11:15:11;;;;;;;4.00;3.30;;;29.40;46.10;;;;;;5112990;28;21023;-87
2021/06/15 11:17:49;;;;;;;3.53;3.33;;;29.60;47.70;;;;;;5113589;28;20630;-87
2021/06/15 11:20:28;;;;;;;3.97;3.57;;;29.10;46.00;;;;;;5113210;28;20955;-87
2021/06/15 11:23:18;;;;;;;3.57;3.27;;;29.20;45.60;;;;;;5113292;28;20626;-87
2021/06/15 11:26:17;;;;;;;3.93;3.43;;;29.50;46.50;;;;;;5111358;28;20623;-89
2021/06/15 11:28:57;;;;;;;5.23;2.93;;;30.10;44.30;;;;;;5102438;28;20608;-88
2021/06/15 11:31:32;;;;;;;3.87;3.57;;;29.70;44.20;;;;;;5113623;28;20676;-88
2021/06/15 11:34:14;;;;;;;5.27;3.07;;;29.60;44.60;;;;;;5113645;28;20655;-87
2021/06/15 11:36:43;;;;;;;5.13;3.13;;;29.90;43.80;;;;;;5111880;28;20979;-87
2021/06/15 11:39:35;;;;;;;3.07;2.87;;;29.80;44.50;;;;;;5113590;28;20627;-86
2021/06/15 11:42:23;;;;;;;6.80;2.93;;;30.40;45.10;;;;;;5099044;28;20700;-88
2021/06/15 11:45:09;;;;;;;4.13;3.83;;;30.80;44.10;;;;;;5112798;28;21140;-88
2021/06/15 11:47:45;;;;;;;2.87;2.67;;;31.50;43.10;;;;;;5109952;28;20627;-88
2021/06/15 11:50:26;;;;;;;3.07;2.80;;;32.00;42.00;;;;;;5111127;28;20623;-87
2021/06/15 11:52:57;;;;;;;2.87;2.67;;;32.40;41.30;;;;;;5110859;28;20607;-88
2021/06/15 11:55:28;;;;;;;2.70;2.50;;;32.30;39.90;;;;;;5110893;28;21121;-88
2021/06/15 11:58:06;;;;;;;3.50;3.30;;;32.70;42.00;;;;;;5113836;28;20627;-88
2021/06/15 12:00:36;;;;;;;3.40;3.10;;;33.50;40.70;;;;;;5113916;28;21379;-90
2021/06/15 12:03:17;;;;;;;3.23;2.93;;;34.20;40.00;;;;;;5114151;28;20603;-89
2021/06/15 12:05:46;;;;;;;3.73;3.20;;;33.10;39.00;;;;;;5114697;28;20622;-88
2021/06/15 12:08:14;;;;;;;3.50;3.20;;;32.10;39.10;;;;;;5116091;28;20603;-90
2021/06/15 12:10:43;;;;;;;2.63;2.43;;;32.80;39.20;;;;;;5115557;28;20622;-88
2021/06/15 12:13:12;;;;;;;3.50;3.20;;;34.60;38.30;;;;;;5117581;28;20623;-88
2021/06/15 12:16:01;;;;;;;3.30;2.83;;;35.50;38.20;;;;;;5117439;28;20663;-89
2021/06/15 12:18:47;;;;;;;3.37;3.17;;;36.50;36.20;;;;;;5116641;28;20652;-89
2021/06/15 12:21:21;;;;;;;2.80;2.70;;;37.30;36.00;;;;;;5115903;28;20730;-88
2021/06/15 12:23:53;;;;;;;5.30;2.80;;;37.60;34.70;;;;;;5117842;28;20308;-89
2021/06/15 12:26:23;;;;;;;2.77;2.57;;;35.90;35.10;;;;;;5118249;28;20264;-89
2021/06/15 12:28:53;;;;;;;3.08;2.80;;;37.10;34.70;;;;;;5117897;28;20197;-89
2021/06/15 12:31:24;;;;;;;3.28;2.97;;;37.60;35.00;;;;;;5117488;28;20207;-89
2021/06/15 12:33:53;;;;;;;3.55;3.00;;;37.90;35.40;;;;;;5116971;28;20197;-89
2021/06/15 12:36:22;;;;;;;3.15;2.88;;;38.70;34.40;;;;;;5118568;28;20201;-89
2021/06/15 12:39:02;;;;;;;;;;;;;;;;;;;;;
2021/06/15 12:41:35;;;;;;;3.20;2.90;;;38.70;32.80;;;;;;5118505;28;20219;-89
2021/06/15 12:44:03;;;;;;;2.95;2.75;;;39.00;32.50;;;;;;5118433;28;20208;-89
2021/06/15 12:46:33;;;;;;;2.55;2.45;;;39.10;32.90;;;;;;5117784;28;20197;-89
2021/06/15 12:49:03;;;;;;;2.60;2.47;;;37.80;32.50;;;;;;5118249;28;20209;-90
2021/06/15 12:51:32;;;;;;;3.63;3.33;;;37.40;34.60;;;;;;5118705;28;20681;-89
2021/06/15 12:54:24;;;;;;;2.92;2.72;;;37.90;33.00;;;;;;5118296;28;20195;-89
2021/06/15 12:57:02;;;;;;;3.28;2.97;;;38.10;33.90;;;;;;5116985;28;20209;-91
2021/06/15 12:59:31;;;;;;;2.50;2.30;;;37.00;32.00;;;;;;5117769;28;20576;-89
2021/06/15 13:02:00;;;;;;;6.10;3.10;;;36.10;32.80;;;;;;5118136;28;20197;-91
2021/06/15 13:04:28;;;;;;;2.70;2.60;;;34.70;34.90;;;;;;5117692;28;20614;-90
2021/06/15 13:06:58;;;;;;;3.63;3.43;;;35.20;33.00;;;;;;5112818;28;20631;-91
2021/06/15 13:09:33;;;;;;;3.03;2.83;;;35.40;34.80;;;;;;5117783;27;20725;-91
2021/06/15 13:12:12;;;;;;;2.60;2.40;;;35.10;36.10;;;;;;5117807;28;21433;-91